createdAt,value
2022-12-18T00:01:34.398Z,102612.25
2022-12-18T00:04:05.164Z,102615.53
2022-12-18T00:06:33.748Z,102623.34
2022-12-18T00:09:03.324Z,102633.59
2022-12-18T00:11:32.037Z,102622.78
2022-12-18T00:14:00.880Z,102626.19
2022-12-18T00:16:31.062Z,102627.59
2022-12-18T00:19:01.277Z,102628.59
2022-12-18T00:21:30.832Z,102627.31
2022-12-18T00:23:59.515Z,102635.91
2022-12-18T00:26:33.604Z,102636.84
2022-12-18T00:29:05.693Z,102625.84
2022-12-18T00:31:34.380Z,102626.63
2022-12-18T00:34:02.297Z,102628.19
2022-12-18T00:36:34.168Z,102631.38
2022-12-18T00:39:04.966Z,102630.94
2022-12-18T00:41:51.311Z,102630.19
2022-12-18T00:44:19.709Z,102636.25
2022-12-18T00:46:49.032Z,102623.66
2022-12-18T00:49:19.751Z,102634.31
2022-12-18T00:51:47.989Z,102640.56
2022-12-18T00:54:16.524Z,102646.00
2022-12-18T00:56:50.687Z,102649.50
2022-12-18T00:59:19.307Z,102656.31
2022-12-18T01:01:47.532Z,102661.38
2022-12-18T01:04:15.824Z,102661.16
2022-12-18T01:06:42.973Z,102662.13
2022-12-18T01:09:10.121Z,102666.09
2022-12-18T01:11:37.437Z,102667.16
2022-12-18T01:14:04.799Z,102666.38
2022-12-18T01:16:32.062Z,102678.28
2022-12-18T01:18:59.572Z,102662.34
2022-12-18T01:21:26.808Z,102671.09
2022-12-18T01:23:56.711Z,102662.66
2022-12-18T01:26:26.393Z,102672.41
2022-12-18T01:28:55.430Z,102675.66
2022-12-18T01:31:24.417Z,102686.19
2022-12-18T01:33:53.330Z,102677.94
2022-12-18T01:36:33.891Z,102688.13
2022-12-18T01:39:07.528Z,102688.88
2022-12-18T01:41:54.508Z,102677.59
2022-12-18T01:44:58.842Z,102685.91
2022-12-18T01:47:34.782Z,102675.91
2022-12-18T01:50:17.717Z,102669.19
2022-12-18T01:52:49.705Z,102678.13
2022-12-18T01:55:23.508Z,102676.19
2022-12-18T01:57:55.962Z,102668.25
2022-12-18T02:00:25.556Z,102662.69
2022-12-18T02:02:53.971Z,102663.69
2022-12-18T02:05:50.659Z,102674.50
2022-12-18T02:09:19.651Z,102678.88
2022-12-18T02:12:07.913Z,102691.53
2022-12-18T02:14:55.484Z,102700.38
2022-12-18T02:17:34.419Z,102684.91
2022-12-18T02:20:37.303Z,102688.00
2022-12-18T02:23:43.308Z,102684.03
2022-12-18T02:26:38.979Z,102684.41
2022-12-18T02:29:28.908Z,102675.88
2022-12-18T02:32:00.922Z,102684.59
2022-12-18T02:34:33.808Z,102683.75
2022-12-18T02:37:07.330Z,102678.13
2022-12-18T02:39:37.464Z,102679.88
2022-12-18T02:42:08.800Z,102677.72
2022-12-18T02:44:45.410Z,102690.44
2022-12-18T02:47:15.757Z,102688.66
2022-12-18T02:49:59.689Z,102689.28
2022-12-18T02:52:27.066Z,102684.16
2022-12-18T02:55:29.329Z,102695.91
2022-12-18T02:58:04.238Z,102691.97
2022-12-18T03:00:41.758Z,102679.94
2022-12-18T03:03:33.614Z,102688.00
2022-12-18T03:06:41.113Z,102687.13
2022-12-18T03:09:18.602Z,102678.72
2022-12-18T03:12:14.286Z,102682.59
2022-12-18T03:14:46.101Z,102683.09
2022-12-18T03:17:19.665Z,102685.06
2022-12-18T03:19:49.389Z,102692.59
2022-12-18T03:22:17.869Z,102689.28
2022-12-18T03:24:49.368Z,102691.31
2022-12-18T03:27:23.313Z,102680.69
2022-12-18T03:30:08.180Z,102686.69
2022-12-18T03:33:06.855Z,102690.66
2022-12-18T03:35:40.780Z,102685.75
2022-12-18T03:38:09.336Z,102677.38
2022-12-18T03:40:57.099Z,102676.50
2022-12-18T03:44:14.818Z,102684.47
2022-12-18T03:47:03.151Z,102690.66
2022-12-18T03:49:57.422Z,102682.72
2022-12-18T03:52:34.277Z,102696.47
2022-12-18T03:55:04.667Z,102695.59
2022-12-18T03:57:33.885Z,102696.03
2022-12-18T04:00:10.677Z,102698.81
2022-12-18T04:02:45.666Z,102703.97
2022-12-18T04:05:15.996Z,102696.69
2022-12-18T04:07:45.902Z,102691.66
2022-12-18T04:10:15.386Z,102695.69
2022-12-18T04:12:43.051Z,102696.53
2022-12-18T04:15:12.725Z,102683.28
2022-12-18T04:17:50.539Z,102700.19
2022-12-18T04:20:18.648Z,102701.53
2022-12-18T04:22:46.491Z,102693.66
2022-12-18T04:25:14.379Z,102689.78
2022-12-18T04:27:41.587Z,102701.13
2022-12-18T04:30:09.604Z,102705.31
2022-12-18T04:32:37.166Z,102706.00
2022-12-18T04:35:07.411Z,102717.16
2022-12-18T04:37:34.610Z,102704.81
2022-12-18T04:40:01.806Z,102705.22
2022-12-18T04:42:28.983Z,102711.88
2022-12-18T04:44:56.188Z,102708.94
2022-12-18T04:47:23.339Z,102711.34
2022-12-18T04:49:50.523Z,102706.47
2022-12-18T04:52:17.684Z,102704.06
2022-12-18T04:54:44.878Z,102694.69
2022-12-18T04:57:12.081Z,102692.44
2022-12-18T04:59:39.313Z,102687.69
2022-12-18T05:02:07.005Z,102688.69
2022-12-18T05:04:34.258Z,102691.25
2022-12-18T05:07:01.483Z,102678.97
2022-12-18T05:09:28.705Z,102668.03
2022-12-18T05:11:55.917Z,102671.72
2022-12-18T05:14:23.072Z,102670.13
2022-12-18T05:16:50.363Z,102676.03
2022-12-18T05:19:17.542Z,102674.63
2022-12-18T05:21:44.765Z,102676.44
2022-12-18T05:24:13.133Z,102673.25
2022-12-18T05:26:40.457Z,102678.84
2022-12-18T05:29:08.773Z,102674.13
2022-12-18T05:31:39.710Z,102668.31
2022-12-18T05:34:07.243Z,102675.16
2022-12-18T05:36:34.410Z,102679.94
2022-12-18T05:39:01.596Z,102678.66
2022-12-18T05:41:29.618Z,102681.72
2022-12-18T05:43:56.833Z,102701.31
2022-12-18T05:46:25.185Z,102694.56
2022-12-18T05:48:52.796Z,102702.94
2022-12-18T05:51:22.864Z,102689.78
2022-12-18T05:53:50.107Z,102707.31
2022-12-18T05:56:22.480Z,102717.66
2022-12-18T05:58:53.956Z,102729.88
2022-12-18T06:01:25.890Z,102727.75
2022-12-18T06:03:53.548Z,102731.69
2022-12-18T06:06:24.927Z,102742.28
2022-12-18T06:08:53.352Z,102741.44
2022-12-18T06:11:24.557Z,102740.56
2022-12-18T06:13:58.742Z,102739.72
2022-12-18T06:16:28.804Z,102744.31
2022-12-18T06:19:00.998Z,102751.78
2022-12-18T06:21:29.472Z,102762.09
2022-12-18T06:23:57.060Z,102754.44
2022-12-18T06:26:28.332Z,102746.00
2022-12-18T06:28:56.142Z,102745.22
2022-12-18T06:31:23.386Z,102764.38
2022-12-18T06:33:50.785Z,102768.28
2022-12-18T06:36:18.564Z,102773.97
2022-12-18T06:38:45.823Z,102772.19
2022-12-18T06:41:20.274Z,102769.16
2022-12-18T06:43:47.889Z,102768.06
2022-12-18T06:46:15.706Z,102759.94
2022-12-18T06:48:43.218Z,102766.88
2022-12-18T06:51:10.344Z,102762.03
2022-12-18T06:53:37.948Z,102773.41
2022-12-18T06:56:10.739Z,102761.41
2022-12-18T06:58:39.924Z,102778.31
2022-12-18T07:01:11.169Z,102771.66
2022-12-18T07:03:41.499Z,102778.16
2022-12-18T07:06:18.288Z,102769.44
2022-12-18T07:08:47.456Z,102773.78
2022-12-18T07:11:15.626Z,102777.44
2022-12-18T07:13:43.950Z,102782.91
2022-12-18T07:16:20.804Z,102776.63
2022-12-18T07:18:51.595Z,102773.56
2022-12-18T07:21:22.904Z,102786.38
2022-12-18T07:23:50.317Z,102795.06
2022-12-18T07:26:21.016Z,102794.84
2022-12-18T07:28:49.386Z,102814.72
2022-12-18T07:31:22.254Z,102815.75
2022-12-18T07:33:52.220Z,102826.59
2022-12-18T07:36:23.615Z,102836.84
2022-12-18T07:38:52.522Z,102840.09
2022-12-18T07:41:20.418Z,102828.81
2022-12-18T07:43:48.099Z,102834.22
2022-12-18T07:46:17.338Z,102829.13
2022-12-18T07:48:49.389Z,102824.53
2022-12-18T07:51:18.971Z,102827.72
2022-12-18T07:53:46.775Z,102830.09
2022-12-18T07:56:27.252Z,102839.03
2022-12-18T07:58:56.743Z,102829.06
2022-12-18T08:01:24.371Z,102849.81
2022-12-18T08:03:52.501Z,102852.03
2022-12-18T08:06:22.590Z,102851.03
2022-12-18T08:08:56.728Z,102844.50
2022-12-18T08:11:26.841Z,102843.56
2022-12-18T08:13:54.656Z,102847.44
2022-12-18T08:16:23.254Z,102830.63
2022-12-18T08:18:52.539Z,102819.00
2022-12-18T08:21:24.801Z,102820.59
2022-12-18T08:23:54.473Z,102818.59
2022-12-18T08:26:23.009Z,102820.31
2022-12-18T08:28:51.922Z,102811.00
2022-12-18T08:31:20.016Z,102826.09
2022-12-18T08:33:53.184Z,102812.75
2022-12-18T08:36:21.315Z,102814.09
2022-12-18T08:38:48.471Z,102808.66
2022-12-18T08:41:18.249Z,102809.75
2022-12-18T08:44:04.334Z,102793.91
2022-12-18T08:46:41.554Z,102790.75
2022-12-18T08:49:11.924Z,102779.25
2022-12-18T08:51:40.036Z,102780.69
2022-12-18T08:54:08.265Z,102773.16
2022-12-18T08:56:35.527Z,102761.78
2022-12-18T08:59:02.785Z,102752.78
2022-12-18T09:01:30.076Z,102751.84
2022-12-18T09:03:57.885Z,102737.22
2022-12-18T09:06:25.103Z,102738.72
2022-12-18T09:08:52.320Z,102737.53
2022-12-18T09:11:26.363Z,102745.81
2022-12-18T09:13:55.246Z,102724.50
2022-12-18T09:16:30.307Z,102725.69
2022-12-18T09:19:00.712Z,102723.47
2022-12-18T09:21:34.272Z,102721.59
2022-12-18T09:24:08.619Z,102725.34
2022-12-18T09:26:36.742Z,102731.59
2022-12-18T09:29:04.990Z,102711.91
2022-12-18T09:31:32.188Z,102703.75
2022-12-18T09:33:59.332Z,102701.06
2022-12-18T09:36:26.553Z,102705.28
2022-12-18T09:38:54.217Z,102706.69
2022-12-18T09:41:45.449Z,102709.47
2022-12-18T09:44:25.988Z,102718.78
2022-12-18T09:47:14.048Z,102709.41
2022-12-18T09:49:52.648Z,102698.09
2022-12-18T09:52:35.121Z,102709.44
2022-12-18T09:55:23.186Z,102711.06
2022-12-18T09:58:02.270Z,102703.75
2022-12-18T10:00:29.593Z,102706.59
2022-12-18T10:03:12.567Z,102706.97
2022-12-18T10:06:06.871Z,102704.41
2022-12-18T10:09:04.894Z,102706.34
2022-12-18T10:11:53.327Z,102705.75
2022-12-18T10:14:34.045Z,102698.91
2022-12-18T10:17:25.719Z,102710.78
2022-12-18T10:20:20.286Z,102719.78
2022-12-18T10:23:16.532Z,102718.19
2022-12-18T10:25:53.730Z,102731.25
2022-12-18T10:28:22.778Z,102734.16
2022-12-18T10:30:50.111Z,102743.91
2022-12-18T10:33:22.508Z,102749.19
2022-12-18T10:35:52.477Z,102756.69
2022-12-18T10:38:20.161Z,102764.28
2022-12-18T10:41:26.785Z,102755.59
2022-12-18T10:44:18.723Z,102745.53
2022-12-18T10:46:50.323Z,102738.72
2022-12-18T10:49:29.820Z,102724.78
2022-12-18T10:52:19.751Z,102725.66
2022-12-18T10:54:59.508Z,102730.19
2022-12-18T10:57:41.338Z,102723.00
2022-12-18T11:00:29.583Z,102721.06
2022-12-18T11:02:58.129Z,102721.66
2022-12-18T11:05:37.664Z,102723.81
2022-12-18T11:08:05.089Z,102717.47
2022-12-18T11:10:40.082Z,102702.84
2022-12-18T11:13:27.335Z,102697.56
2022-12-18T11:15:54.990Z,102697.72
2022-12-18T11:18:29.867Z,102691.97
2022-12-18T11:21:13.561Z,102693.09
2022-12-18T11:23:52.697Z,102684.25
2022-12-18T11:26:20.990Z,102684.75
2022-12-18T11:28:53.188Z,102673.28
2022-12-18T11:31:22.141Z,102675.84
2022-12-18T11:34:29.202Z,102674.84
2022-12-18T11:37:02.036Z,102683.25
2022-12-18T11:39:37.408Z,102686.38
2022-12-18T11:42:47.041Z,102691.38
2022-12-18T11:45:14.189Z,102688.75
2022-12-18T11:48:04.976Z,102684.22
2022-12-18T11:50:47.350Z,102697.78
2022-12-18T11:53:14.779Z,102703.66
2022-12-18T11:55:57.284Z,102698.56
2022-12-18T11:58:50.996Z,102680.47
2022-12-18T12:01:45.679Z,102686.81
2022-12-18T12:05:19.325Z,102679.75
2022-12-18T12:08:12.105Z,102674.84
2022-12-18T12:11:10.077Z,102667.72
2022-12-18T12:13:45.260Z,102668.19
2022-12-18T12:16:19.062Z,102649.84
2022-12-18T12:19:03.976Z,102640.81
2022-12-18T12:22:09.764Z,102629.88
2022-12-18T12:25:32.637Z,102624.47
2022-12-18T12:28:30.690Z,102635.69
2022-12-18T12:31:33.425Z,102622.69
2022-12-18T12:34:21.110Z,102606.97
2022-12-18T12:37:07.801Z,102604.47
2022-12-18T12:39:43.289Z,102604.03
2022-12-18T12:43:13.595Z,102601.19
2022-12-18T12:46:06.090Z,102579.59
2022-12-18T12:48:54.420Z,102592.47
2022-12-18T12:51:27.141Z,102582.31
2022-12-18T12:53:58.255Z,102576.63
2022-12-18T12:56:40.833Z,102570.56
2022-12-18T12:59:35.763Z,102574.03
2022-12-18T13:02:43.182Z,102564.88
2022-12-18T13:05:25.538Z,102548.81
2022-12-18T13:08:02.131Z,102556.53
2022-12-18T13:10:44.612Z,102554.41
2022-12-18T13:13:17.299Z,102550.00
2022-12-18T13:16:09.002Z,102542.44
2022-12-18T13:18:37.197Z,102542.44
2022-12-18T13:21:29.789Z,102528.69
2022-12-18T13:24:14.957Z,102520.53
2022-12-18T13:26:42.264Z,102526.63
2022-12-18T13:29:09.845Z,102533.44
2022-12-18T13:31:40.749Z,102524.25
2022-12-18T13:34:26.849Z,102523.91
2022-12-18T13:37:00.406Z,102541.50
2022-12-18T13:39:36.042Z,102544.25
2022-12-18T13:42:07.075Z,102544.25
2022-12-18T13:44:42.340Z,102547.03
2022-12-18T13:47:48.676Z,102535.72
2022-12-18T13:50:32.501Z,102526.28
2022-12-18T13:53:06.086Z,102527.59
2022-12-18T13:55:33.541Z,102530.44
2022-12-18T13:58:06.681Z,102530.94
2022-12-18T14:00:34.867Z,102524.09
2022-12-18T14:03:02.590Z,102529.34
2022-12-18T14:05:33.903Z,102520.56
2022-12-18T14:08:08.995Z,102524.69
2022-12-18T14:10:49.510Z,102538.66
2022-12-18T14:13:43.030Z,102530.69
2022-12-18T14:16:17.597Z,102526.88
2022-12-18T14:19:02.679Z,102534.59
2022-12-18T14:21:40.062Z,102536.44
2022-12-18T14:24:19.483Z,102524.34
2022-12-18T14:26:50.585Z,102520.88
2022-12-18T14:29:28.855Z,102516.63
2022-12-18T14:32:16.596Z,102518.94
2022-12-18T14:34:50.842Z,102516.34
2022-12-18T14:37:23.418Z,102500.16
2022-12-18T14:39:59.257Z,102501.84
2022-12-18T14:42:30.392Z,102502.41
2022-12-18T14:45:42.382Z,102498.75
2022-12-18T14:48:22.888Z,102517.41
2022-12-18T14:51:11.794Z,102531.19
2022-12-18T14:53:59.011Z,102519.13
2022-12-18T14:56:43.561Z,102521.38
2022-12-18T14:59:24.735Z,102507.28
2022-12-18T15:02:21.178Z,102503.28
2022-12-18T15:05:00.100Z,102502.47
2022-12-18T15:07:27.539Z,102505.63
2022-12-18T15:10:09.857Z,102499.22
2022-12-18T15:13:03.415Z,102483.50
2022-12-18T15:15:40.503Z,102486.75
2022-12-18T15:18:11.408Z,102472.66
2022-12-18T15:20:56.079Z,102471.34
2022-12-18T15:23:31.572Z,102464.53
2022-12-18T15:26:15.377Z,102467.44
2022-12-18T15:28:56.278Z,102444.41
2022-12-18T15:31:29.075Z,102452.13
2022-12-18T15:33:56.125Z,102445.84
2022-12-18T15:36:26.285Z,102451.66
2022-12-18T15:39:04.601Z,102446.44
2022-12-18T15:41:36.769Z,102435.00
2022-12-18T15:44:22.346Z,102437.06
2022-12-18T15:46:49.683Z,102443.81
2022-12-18T15:49:16.896Z,102442.94
2022-12-18T15:51:44.433Z,102441.94
2022-12-18T15:54:17.078Z,102444.63
2022-12-18T15:57:02.991Z,102446.25
2022-12-18T15:59:30.186Z,102453.25
2022-12-18T16:01:57.951Z,102444.19
2022-12-18T16:04:26.257Z,102441.19
2022-12-18T16:09:40.835Z,102425.34
2022-12-18T16:12:17.802Z,102418.19
2022-12-18T16:14:46.006Z,102404.56
2022-12-18T16:17:15.149Z,102400.94
2022-12-18T16:19:43.867Z,102404.00
2022-12-18T16:22:24.854Z,102403.63
2022-12-18T16:24:54.192Z,102400.16
2022-12-18T16:27:23.197Z,102388.06
2022-12-18T16:29:51.175Z,102385.41
2022-12-18T16:32:22.091Z,102382.59
2022-12-18T16:34:50.538Z,102391.69
2022-12-18T16:37:18.056Z,102400.09
2022-12-18T16:39:45.725Z,102405.38
2022-12-18T16:42:21.048Z,102399.72
2022-12-18T16:44:50.124Z,102395.66
2022-12-18T16:47:17.909Z,102394.84
2022-12-18T16:49:46.183Z,102388.41
2022-12-18T16:52:14.236Z,102384.91
2022-12-18T16:54:41.526Z,102373.53
2022-12-18T16:57:14.068Z,102368.66
2022-12-18T16:59:41.371Z,102378.53
2022-12-18T17:02:23.956Z,102390.25
2022-12-18T17:04:56.283Z,102383.41
2022-12-18T17:07:25.490Z,102389.59
2022-12-18T17:09:53.985Z,102389.44
2022-12-18T17:12:21.619Z,102383.56
2022-12-18T17:14:49.203Z,102379.78
2022-12-18T17:17:21.472Z,102381.19
2022-12-18T17:19:49.942Z,102382.53
2022-12-18T17:22:17.316Z,102378.66
2022-12-18T17:24:44.514Z,102370.94
2022-12-18T17:27:11.676Z,102364.81
2022-12-18T17:29:43.965Z,102355.25
2022-12-18T17:32:13.940Z,102342.84
2022-12-18T17:34:41.330Z,102347.91
2022-12-18T17:37:08.996Z,102340.91
2022-12-18T17:39:36.300Z,102333.59
2022-12-18T17:42:03.933Z,102336.78
2022-12-18T17:44:34.272Z,102338.09
2022-12-18T17:47:01.789Z,102336.03
2022-12-18T17:49:29.358Z,102336.28
2022-12-18T17:51:56.537Z,102342.34
2022-12-18T17:54:23.751Z,102331.63
2022-12-18T17:56:51.007Z,102328.16
2022-12-18T17:59:18.213Z,102332.06
2022-12-18T18:01:45.894Z,102329.09
2022-12-18T18:04:14.706Z,102321.34
2022-12-18T18:06:42.066Z,102303.53
2022-12-18T18:09:15.282Z,102302.81
2022-12-18T18:12:04.411Z,102298.72
2022-12-18T18:14:32.956Z,102300.03
2022-12-18T18:17:04.217Z,102302.91
2022-12-18T18:19:33.558Z,102300.75
2022-12-18T18:22:01.629Z,102293.81
2022-12-18T18:24:31.192Z,102293.72
2022-12-18T18:27:01.380Z,102292.22
2022-12-18T18:29:32.552Z,102286.06
2022-12-18T18:31:59.858Z,102287.50
2022-12-18T18:34:30.319Z,102289.25
2022-12-18T18:36:57.599Z,102285.25
2022-12-18T18:39:25.449Z,102284.69
2022-12-18T18:41:53.174Z,102287.31
2022-12-18T18:44:24.863Z,102297.00
2022-12-18T18:46:55.719Z,102297.13
2022-12-18T18:49:26.922Z,102289.44
2022-12-18T18:51:55.791Z,102285.38
2022-12-18T18:54:23.614Z,102277.28
2022-12-18T18:59:38.298Z,102268.56
2022-12-18T19:02:05.586Z,102268.75
2022-12-18T19:04:34.086Z,102280.28
2022-12-18T19:07:01.869Z,102275.22
2022-12-18T19:09:29.412Z,102263.47
2022-12-18T19:12:16.464Z,102261.28
2022-12-18T19:14:43.857Z,102266.25
2022-12-18T19:17:11.084Z,102262.66
2022-12-18T19:19:39.277Z,102249.03
2022-12-18T19:22:06.657Z,102269.66
2022-12-18T19:24:33.960Z,102267.72
2022-12-18T19:27:01.441Z,102248.63
2022-12-18T19:29:28.666Z,102234.69
2022-12-18T19:31:55.927Z,102226.31
2022-12-18T19:34:23.188Z,102245.56
2022-12-18T19:36:53.891Z,102239.50
2022-12-18T19:39:25.666Z,102235.78
2022-12-18T19:41:53.014Z,102239.72
2022-12-18T19:44:21.592Z,102244.03
2022-12-18T19:46:51.831Z,102236.53
2022-12-18T19:49:21.968Z,102235.22
2022-12-18T19:51:50.175Z,102210.09
2022-12-18T19:54:18.072Z,102209.63
2022-12-18T19:56:46.106Z,102210.81
2022-12-18T19:59:14.482Z,102199.44
2022-12-18T20:01:42.100Z,102218.41
2022-12-18T20:04:09.572Z,102215.63
2022-12-18T20:06:51.569Z,102198.41
2022-12-18T20:09:19.884Z,102206.16
2022-12-18T20:11:48.198Z,102196.34
2022-12-18T20:14:22.338Z,102182.16
2022-12-18T20:16:52.355Z,102177.25
2022-12-18T20:19:20.745Z,102177.09
2022-12-18T20:21:48.113Z,102171.84
2022-12-18T20:24:15.317Z,102176.22
2022-12-18T20:26:42.546Z,102171.31
2022-12-18T20:29:09.789Z,102170.81
2022-12-18T20:31:37.266Z,102161.72
2022-12-18T20:34:06.107Z,102168.75
2022-12-18T20:36:35.251Z,102163.66
2022-12-18T20:39:06.531Z,102159.09
2022-12-18T20:41:38.317Z,102150.88
2022-12-18T20:44:23.004Z,102159.13
2022-12-18T20:46:56.222Z,102159.66
2022-12-18T20:49:26.608Z,102158.06
2022-12-18T20:51:56.813Z,102145.97
2022-12-18T20:54:27.242Z,102138.28
2022-12-18T20:56:55.120Z,102147.78
2022-12-18T20:59:23.243Z,102143.38
2022-12-18T21:01:52.037Z,102149.50
2022-12-18T21:04:19.601Z,102136.72
2022-12-18T21:06:54.255Z,102143.72
2022-12-18T21:09:33.724Z,102138.28
2022-12-18T21:12:26.223Z,102139.50
2022-12-18T21:14:53.757Z,102128.84
2022-12-18T21:17:20.921Z,102123.41
2022-12-18T21:19:48.128Z,102107.81
2022-12-18T21:22:16.457Z,102112.19
2022-12-18T21:24:43.893Z,102119.91
2022-12-18T21:27:13.011Z,102124.47
2022-12-18T21:29:45.803Z,102124.47
2022-12-18T21:32:13.984Z,102122.72
2022-12-18T21:34:46.238Z,102124.28
2022-12-18T21:37:15.692Z,102120.44
2022-12-18T21:39:42.953Z,102118.34
2022-12-18T21:42:30.590Z,102117.28
2022-12-18T21:44:57.912Z,102113.44
2022-12-18T21:47:25.149Z,102103.44
2022-12-18T21:49:53.179Z,102093.09
2022-12-18T21:52:29.823Z,102114.13
2022-12-18T21:55:08.442Z,102120.97
2022-12-18T21:57:39.564Z,102105.38
2022-12-18T22:00:18.727Z,102117.63
2022-12-18T22:03:00.490Z,102102.22
2022-12-18T22:05:36.213Z,102095.06
2022-12-18T22:08:04.413Z,102093.84
2022-12-18T22:10:32.098Z,102085.06
2022-12-18T22:12:59.307Z,102097.69
2022-12-18T22:15:26.542Z,102089.97
2022-12-18T22:17:59.544Z,102080.16
2022-12-18T22:20:29.962Z,102081.56
2022-12-18T22:22:58.659Z,102071.03
2022-12-18T22:25:27.250Z,102072.78
2022-12-18T22:28:13.052Z,102061.94
2022-12-18T22:30:40.347Z,102054.22
2022-12-18T22:33:07.569Z,102050.56
2022-12-18T22:35:34.992Z,102061.94
2022-12-18T22:38:03.279Z,102055.63
2022-12-18T22:40:30.642Z,102044.41
2022-12-18T22:42:58.118Z,102038.63
2022-12-18T22:45:26.798Z,102038.81
2022-12-18T22:47:54.153Z,102038.44
2022-12-18T22:50:21.623Z,102036.34
2022-12-18T22:52:48.862Z,102033.38
2022-12-18T22:55:16.037Z,102030.38
2022-12-18T22:57:48.571Z,102017.44
2022-12-18T23:00:16.836Z,102016.56
2022-12-18T23:02:48.074Z,101997.47
2022-12-18T23:05:15.564Z,101979.41
2022-12-18T23:07:42.714Z,101989.72
2022-12-18T23:10:10.109Z,101974.47
2022-12-18T23:12:37.595Z,101988.66
2022-12-18T23:15:05.988Z,101986.19
2022-12-18T23:17:33.152Z,101974.97
2022-12-18T23:20:00.306Z,101983.69
2022-12-18T23:22:30.409Z,101972.69
2022-12-18T23:24:57.660Z,101966.94
2022-12-18T23:27:24.848Z,101964.63
2022-12-18T23:29:51.993Z,101975.97
2022-12-18T23:32:20.392Z,101980.16
2022-12-18T23:34:47.600Z,101980.31
2022-12-18T23:37:35.281Z,101986.50
2022-12-18T23:40:02.025Z,101982.56
2022-12-18T23:42:29.220Z,101980.97
2022-12-18T23:44:56.399Z,101973.81
2022-12-18T23:47:24.779Z,101973.81
2022-12-18T23:49:51.914Z,101971.03
2022-12-18T23:52:19.457Z,101961.59
2022-12-18T23:54:46.712Z,101958.78
2022-12-18T23:57:13.962Z,101964.72
2022-12-18T23:59:41.278Z,101952.41
